Startpagina
METAR-TAF:

METAR-TAF

Vliegvelden :

Aéroport de Paris-Beauvais-Tillé

Beauvais, Frankrijk

breedte: 49-28N, lengte: 002-07E, hoogte: 109 m

Actueel weer

Dit bericht is 27 minuten geleden gemaakt, om 22:00 UTC
Wind 4 kt uit het westen
Temperatuur 14°C
Vochtigheid 82%
Druk 1019 hPa
Zicht 10 km of meer
geen wolken onder 1500 m en geen cumulonimbus

METAR: LFOB 192200Z AUTO 27004KT CAVOK 14/11 Q1019 NOSIG

Tijdstip: 00:27 (22:27 UTC)

Verwachting

Dit bericht is 5 uur en het 27 minuten geleden gemaakt, om 17:00 UTC
Verwachting geldig van 19 om 18 UTC tot 20 om 18 UTC
Wind 6 kt uit het westen
Zicht 10 km of meer
Verspreide wolken op 3000 ft
Tijdelijke
van 20 om 03 UTC tot 20 om 06 UTC
Zicht: 3000 m
nevel

TAF: LFOB 191700Z 1918/2018 27006KT 9999 SCT030 TEMPO 2003/2006 3000 BR

Waarnemingen en weersverwachtingen van meer dan 4000 vliegvelden (METAR en TAF).

De beschikbare stations zijn de gele en rode punten op de kaart.

Ga met uw muis naar het station om de naam te zien.

Klik dan om waarnemingen en weersverwachtingen te zien.

kaart wijzigen: klik op de groene knoppen met een zwart kruis om in te zoomen, op de groene knop met een streepje om uit te zoomen of op de groene pijlen voor aangrenzende kaarten.


METAR-TAF: